Time;durP1;ratioP1;P1;durP2;ratioP2;P2;SDS_P1;SDS_P2;PMS_P1;PMS_P2;Temp;Humidity;BMP_temperature;BMP_pressure;BME280_temperature;BME280_humidity;BME280_pressure;Samples;Min_cycle;Max_cycle;Signal;HPM_P1;HPM_P2
2020/12/17 00:02:25;;;;;;;17.40;9.23;;;11.90;83.80;;;;;;5115414;28;20027;-69
2020/12/17 00:04:50;;;;;;;10.73;5.70;;;11.90;83.70;;;;;;5115172;28;20061;-68
2020/12/17 00:07:16;;;;;;;12.45;7.53;;;12.00;83.70;;;;;;5115112;28;20036;-69
2020/12/17 00:09:42;;;;;;;15.43;10.25;;;12.00;83.60;;;;;;5115477;28;20079;-69
2020/12/17 00:12:07;;;;;;;11.60;7.15;;;12.00;83.60;;;;;;5115262;28;20080;-68
2020/12/17 00:14:33;;;;;;;13.80;7.53;;;12.00;83.60;;;;;;5114720;28;20038;-68
2020/12/17 00:16:59;;;;;;;7.00;4.65;;;12.00;83.50;;;;;;5114999;28;20032;-68
2020/12/17 00:19:24;;;;;;;14.73;8.88;;;12.00;83.50;;;;;;5115199;28;20028;-69
2020/12/17 00:21:53;;;;;;;15.57;9.63;;;12.00;83.40;;;;;;5114656;28;20446;-69
2020/12/17 00:24:19;;;;;;;15.10;7.90;;;12.00;83.20;;;;;;5115094;28;20348;-69
2020/12/17 00:26:44;;;;;;;14.05;8.80;;;12.00;83.20;;;;;;5114925;28;20130;-69
2020/12/17 00:29:10;;;;;;;15.77;8.70;;;12.00;83.30;;;;;;5114583;28;20020;-69
2020/12/17 00:31:35;;;;;;;13.93;7.70;;;12.00;83.20;;;;;;5114789;28;20474;-69
2020/12/17 00:34:01;;;;;;;16.13;9.73;;;12.00;83.10;;;;;;5115097;28;20059;-69
2020/12/17 00:36:27;;;;;;;13.60;8.65;;;12.00;82.80;;;;;;5114575;28;20539;-69
2020/12/17 00:38:53;;;;;;;13.45;7.93;;;12.00;82.90;;;;;;5114895;28;20568;-69
2020/12/17 00:41:18;;;;;;;10.18;5.78;;;12.00;83.00;;;;;;5114724;28;20054;-69
2020/12/17 00:43:45;;;;;;;16.17;8.27;;;12.00;83.00;;;;;;5114190;28;20129;-68
2020/12/17 00:46:15;;;;;;;15.20;8.10;;;12.00;82.90;;;;;;5114412;28;20035;-69
2020/12/17 00:48:41;;;;;;;13.57;8.45;;;12.00;82.80;;;;;;5114572;28;20538;-69
2020/12/17 00:51:07;;;;;;;13.60;6.15;;;12.00;82.70;;;;;;5114000;28;20479;-69
2020/12/17 00:53:34;;;;;;;16.00;9.75;;;12.00;82.60;;;;;;5114413;28;20035;-69
2020/12/17 00:56:00;;;;;;;14.55;8.32;;;12.10;82.70;;;;;;5114558;28;20028;-69
2020/12/17 00:58:26;;;;;;;16.23;8.38;;;12.00;82.70;;;;;;5114032;28;20035;-69
2020/12/17 01:00:52;;;;;;;12.45;7.00;;;12.00;82.70;;;;;;5109107;28;20150;-68
2020/12/17 01:03:17;;;;;;;15.90;9.13;;;12.10;82.70;;;;;;5113424;28;20098;-69
2020/12/17 01:05:43;;;;;;;13.43;8.65;;;12.10;82.60;;;;;;5113814;28;20035;-69
2020/12/17 01:08:09;;;;;;;12.60;7.57;;;12.10;82.50;;;;;;5112699;28;20031;-69
2020/12/17 01:10:34;;;;;;;14.27;7.70;;;12.10;82.50;;;;;;5113365;28;20034;-69
2020/12/17 01:13:00;;;;;;;11.20;7.35;;;12.10;82.50;;;;;;5114287;28;20111;-69
2020/12/17 01:15:26;;;;;;;9.90;5.40;;;12.10;82.40;;;;;;5113677;28;20038;-69
2020/12/17 01:17:51;;;;;;;14.52;7.28;;;12.10;82.40;;;;;;5113512;28;20039;-69
2020/12/17 01:20:17;;;;;;;12.80;7.78;;;12.10;82.30;;;;;;5113714;28;20379;-69
2020/12/17 01:22:43;;;;;;;12.60;7.00;;;12.10;82.30;;;;;;5113815;28;20066;-69
2020/12/17 01:25:09;;;;;;;16.20;9.10;;;12.10;82.20;;;;;;5113244;28;20035;-69
2020/12/17 01:27:34;;;;;;;10.88;5.22;;;12.10;82.40;;;;;;5113503;28;20437;-69
2020/12/17 01:30:00;;;;;;;14.07;8.07;;;12.00;82.30;;;;;;5113497;28;20521;-69
2020/12/17 01:32:26;;;;;;;13.10;7.38;;;12.10;82.40;;;;;;5113382;28;20028;-68
2020/12/17 01:34:52;;;;;;;14.10;8.20;;;12.10;82.40;;;;;;5113907;28;20114;-69
2020/12/17 01:37:17;;;;;;;13.98;6.93;;;12.00;82.40;;;;;;5113967;28;20027;-69
2020/12/17 01:39:43;;;;;;;9.73;5.85;;;12.00;82.50;;;;;;5113483;28;20035;-69
2020/12/17 01:42:09;;;;;;;11.82;6.63;;;12.00;82.50;;;;;;5113638;28;20023;-68
2020/12/17 01:44:39;;;;;;;13.63;7.78;;;12.10;82.60;;;;;;5113469;28;20032;-69
2020/12/17 01:47:05;;;;;;;13.90;7.43;;;12.00;82.60;;;;;;5113471;28;20050;-69
2020/12/17 01:49:31;;;;;;;11.57;7.03;;;12.00;82.50;;;;;;5113753;28;20046;-68
2020/12/17 01:51:57;;;;;;;9.13;3.95;;;12.00;83.20;;;;;;5114020;28;20123;-69
2020/12/17 01:54:23;;;;;;;10.30;5.88;;;12.00;82.50;;;;;;5113259;28;20106;-69
2020/12/17 01:56:59;;;;;;;10.57;4.88;;;12.00;82.70;;;;;;5113451;28;20355;-69
2020/12/17 01:59:25;;;;;;;10.15;4.97;;;12.00;82.80;;;;;;5113403;28;20111;-68
2020/12/17 02:01:53;;;;;;;12.10;7.50;;;11.90;82.80;;;;;;5113618;28;20023;-68
2020/12/17 02:04:22;;;;;;;7.32;4.03;;;11.90;83.00;;;;;;5113428;28;20467;-68
2020/12/17 02:06:49;;;;;;;9.88;5.22;;;11.90;83.10;;;;;;5113169;28;20118;-68
2020/12/17 02:09:15;;;;;;;12.25;6.95;;;11.90;83.20;;;;;;5113748;28;20174;-69
2020/12/17 02:11:53;;;;;;;11.43;5.00;;;11.80;83.30;;;;;;5107983;28;20059;-68
2020/12/17 02:14:19;;;;;;;5.78;3.63;;;11.90;83.40;;;;;;5112779;28;20024;-69
2020/12/17 02:16:45;;;;;;;7.72;4.35;;;11.80;83.30;;;;;;5112613;28;20035;-68
2020/12/17 02:19:11;;;;;;;12.55;5.82;;;11.80;83.50;;;;;;5113033;28;20032;-68
2020/12/17 02:21:37;;;;;;;10.45;4.07;;;11.80;83.70;;;;;;5116658;28;20024;-69
2020/12/17 02:24:03;;;;;;;12.63;6.35;;;11.80;83.70;;;;;;5116885;28;20078;-68
2020/12/17 02:26:29;;;;;;;4.30;2.17;;;11.70;83.90;;;;;;5117217;28;20059;-68
2020/12/17 02:28:54;;;;;;;12.13;5.30;;;11.80;84.10;;;;;;5116930;28;20128;-69
2020/12/17 02:31:23;;;;;;;7.82;4.70;;;11.70;84.10;;;;;;5116840;28;20107;-68
2020/12/17 02:33:48;;;;;;;14.70;7.30;;;11.70;84.20;;;;;;5117338;28;20051;-68
2020/12/17 02:36:14;;;;;;;11.45;6.88;;;11.70;84.40;;;;;;5116733;28;20395;-68
2020/12/17 02:38:43;;;;;;;12.13;6.72;;;11.70;84.50;;;;;;5116553;28;20364;-68
2020/12/17 02:41:08;;;;;;;11.15;6.45;;;11.70;84.60;;;;;;5116833;28;20028;-68
2020/12/17 02:43:34;;;;;;;8.52;4.90;;;11.70;84.50;;;;;;5116714;28;20026;-69
2020/12/17 02:45:59;;;;;;;13.00;6.72;;;11.80;84.60;;;;;;5116809;28;20046;-68
2020/12/17 02:48:25;;;;;;;11.75;5.63;;;11.70;84.50;;;;;;5116976;28;20032;-68
2020/12/17 02:50:51;;;;;;;8.50;3.80;;;11.70;84.40;;;;;;5116518;28;20077;-69
2020/12/17 02:53:16;;;;;;;11.80;7.35;;;11.70;84.50;;;;;;5116640;28;20080;-69
2020/12/17 02:55:42;;;;;;;7.97;4.60;;;11.80;84.60;;;;;;5116324;28;20031;-69
2020/12/17 02:58:08;;;;;;;10.18;5.30;;;11.80;84.60;;;;;;5116921;28;20027;-68
2020/12/17 03:00:34;;;;;;;11.50;6.70;;;11.70;84.50;;;;;;5104897;28;20107;-68
2020/12/17 03:03:00;;;;;;;11.15;6.57;;;11.80;84.60;;;;;;5095638;28;20762;-68
2020/12/17 03:05:26;;;;;;;13.80;6.88;;;11.80;84.60;;;;;;5096001;28;20063;-68
2020/12/17 03:07:52;;;;;;;8.60;3.95;;;11.80;84.60;;;;;;5095531;28;20040;-68
2020/12/17 03:10:17;;;;;;;12.45;7.07;;;11.80;84.50;;;;;;5115647;28;20027;-68
2020/12/17 03:12:43;;;;;;;7.50;4.15;;;11.80;84.50;;;;;;5114123;28;20030;-68
2020/12/17 03:15:10;;;;;;;16.48;6.53;;;11.80;84.50;;;;;;5116414;28;20051;-68
2020/12/17 03:17:36;;;;;;;11.85;6.22;;;11.80;84.50;;;;;;5116018;28;20032;-68
2020/12/17 03:20:08;;;;;;;8.88;5.05;;;11.80;84.50;;;;;;5115959;28;20035;-68
2020/12/17 03:22:34;;;;;;;11.95;6.95;;;11.80;84.50;;;;;;5116093;28;20085;-68
2020/12/17 03:25:00;;;;;;;11.68;6.53;;;11.80;84.50;;;;;;5115826;28;20073;-68
2020/12/17 03:27:26;;;;;;;10.88;6.35;;;11.80;84.50;;;;;;5115729;28;20046;-68
2020/12/17 03:29:51;;;;;;;12.93;6.57;;;11.80;84.50;;;;;;5108070;28;20043;-69
2020/12/17 03:32:17;;;;;;;10.63;5.00;;;11.80;84.50;;;;;;5094343;28;20024;-68
2020/12/17 03:34:43;;;;;;;8.88;4.80;;;11.80;84.40;;;;;;5095238;28;20039;-69
2020/12/17 03:37:09;;;;;;;14.35;7.78;;;11.80;84.40;;;;;;5095723;28;20028;-68
2020/12/17 03:39:35;;;;;;;7.88;4.35;;;11.80;84.40;;;;;;5095176;28;20024;-68
2020/12/17 03:42:01;;;;;;;14.75;6.97;;;11.90;84.50;;;;;;5095068;28;20120;-68
2020/12/17 03:44:28;;;;;;;6.60;3.53;;;11.90;84.50;;;;;;5095271;28;20055;-69
2020/12/17 03:46:53;;;;;;;9.55;5.30;;;11.90;84.40;;;;;;5095058;28;20035;-68
2020/12/17 03:49:19;;;;;;;13.30;6.28;;;11.90;84.40;;;;;;5095077;28;20032;-68
2020/12/17 03:51:45;;;;;;;12.07;7.25;;;11.80;84.40;;;;;;5095221;28;20039;-68
2020/12/17 03:54:10;;;;;;;16.80;6.85;;;11.90;84.50;;;;;;5094798;28;20475;-68
2020/12/17 03:56:36;;;;;;;14.70;6.30;;;11.90;84.50;;;;;;5095082;28;20058;-68
2020/12/17 03:59:02;;;;;;;12.10;6.25;;;11.90;84.40;;;;;;5094520;28;20502;-69
2020/12/17 04:01:27;;;;;;;13.95;7.65;;;11.90;84.50;;;;;;5095435;28;20027;-68
2020/12/17 04:03:53;;;;;;;13.68;6.55;;;11.90;84.50;;;;;;5095184;28;20027;-68
2020/12/17 04:06:18;;;;;;;17.48;6.60;;;11.90;84.40;;;;;;5094735;28;20093;-69
2020/12/17 04:08:44;;;;;;;14.20;7.45;;;11.90;84.40;;;;;;5094885;28;20444;-68
2020/12/17 04:11:10;;;;;;;10.85;5.47;;;12.00;84.40;;;;;;5095247;28;20020;-69
2020/12/17 04:13:36;;;;;;;9.10;5.47;;;11.90;84.30;;;;;;5094431;28;20471;-68
2020/12/17 04:16:03;;;;;;;14.68;6.40;;;11.90;84.20;;;;;;5094895;28;20047;-68
2020/12/17 04:18:29;;;;;;;14.32;7.15;;;12.00;84.30;;;;;;5094685;28;20111;-69
2020/12/17 04:20:54;;;;;;;15.02;7.85;;;12.00;84.30;;;;;;5094224;28;20123;-69
2020/12/17 04:23:20;;;;;;;13.93;6.35;;;12.00;84.20;;;;;;5094787;28;20028;-68
2020/12/17 04:25:46;;;;;;;11.00;6.05;;;12.00;84.20;;;;;;5094702;28;20044;-68
2020/12/17 04:28:11;;;;;;;15.75;7.70;;;12.00;84.10;;;;;;5094037;28;20052;-69
2020/12/17 04:30:37;;;;;;;8.25;3.55;;;12.00;84.10;;;;;;5094441;28;20089;-68
2020/12/17 04:33:03;;;;;;;8.02;5.22;;;12.00;84.10;;;;;;5094680;28;20024;-68
2020/12/17 04:35:29;;;;;;;14.48;7.65;;;12.00;84.00;;;;;;5094187;28;20390;-69
2020/12/17 04:37:54;;;;;;;14.95;6.22;;;12.00;84.00;;;;;;5094223;28;20020;-69
2020/12/17 04:40:20;;;;;;;15.93;7.72;;;12.00;84.00;;;;;;5094577;28;20028;-68
2020/12/17 04:42:49;;;;;;;13.95;7.70;;;12.00;84.10;;;;;;5093901;28;20028;-69
2020/12/17 04:45:15;;;;;;;12.75;7.40;;;12.00;84.10;;;;;;5093958;28;20074;-68
2020/12/17 04:47:45;;;;;;;7.97;4.88;;;12.00;84.10;;;;;;5094497;28;20052;-69
2020/12/17 04:50:15;;;;;;;11.07;6.22;;;12.00;84.00;;;;;;5094030;28;20035;-68
2020/12/17 04:52:42;;;;;;;10.65;6.03;;;12.00;84.00;;;;;;5094076;28;20031;-68
2020/12/17 04:55:09;;;;;;;10.52;4.43;;;12.00;84.00;;;;;;5094809;28;20063;-68
2020/12/17 04:57:42;;;;;;;10.80;5.63;;;12.00;84.00;;;;;;5093784;28;20043;-68
2020/12/17 05:00:08;;;;;;;;;;;12.00;84.00;;;;;;5093589;28;20043;-68
2020/12/17 05:02:36;;;;;;;11.60;6.68;;;12.00;84.00;;;;;;5113025;28;19907;-68
2020/12/17 05:05:02;;;;;;;12.25;6.72;;;12.00;84.00;;;;;;5113191;28;20521;-68
2020/12/17 05:07:28;;;;;;;13.90;8.02;;;11.90;84.00;;;;;;5113697;28;20539;-68
2020/12/17 05:09:54;;;;;;;11.90;4.32;;;12.00;84.20;;;;;;5113417;28;20028;-68
2020/12/17 05:12:19;;;;;;;11.13;7.38;;;12.00;84.30;;;;;;5113907;28;20019;-68
2020/12/17 05:14:45;;;;;;;18.02;6.35;;;11.90;84.20;;;;;;5113953;28;20032;-68
2020/12/17 05:17:11;;;;;;;10.90;5.85;;;11.90;84.20;;;;;;5113300;28;20085;-68
2020/12/17 05:19:37;;;;;;;16.45;7.40;;;11.90;84.30;;;;;;5113786;28;20070;-68
2020/12/17 05:22:05;;;;;;;16.70;7.32;;;11.90;84.30;;;;;;5113993;28;20031;-68
2020/12/17 05:24:31;;;;;;;13.02;7.60;;;12.00;84.40;;;;;;5113215;28;20062;-68
2020/12/17 05:26:59;;;;;;;15.50;6.22;;;12.00;84.50;;;;;;5113495;28;20062;-68
2020/12/17 05:29:26;;;;;;;19.25;7.65;;;12.00;84.30;;;;;;5114034;28;20031;-68
2020/12/17 05:31:52;;;;;;;13.13;7.78;;;12.00;84.30;;;;;;5113184;28;20032;-73
2020/12/17 05:34:18;;;;;;;13.55;7.22;;;12.00;84.40;;;;;;5112028;28;20035;-68
2020/12/17 05:36:45;;;;;;;10.75;6.03;;;12.00;84.30;;;;;;5114034;28;20047;-68
2020/12/17 05:39:15;;;;;;;12.88;7.05;;;12.00;84.30;;;;;;5113345;28;20023;-68
2020/12/17 05:41:42;;;;;;;7.45;3.75;;;12.00;84.30;;;;;;5113686;28;20061;-68
2020/12/17 05:44:10;;;;;;;11.88;7.20;;;12.00;84.30;;;;;;5113677;28;20035;-68
2020/12/17 05:46:37;;;;;;;10.23;5.68;;;12.00;84.30;;;;;;5113372;28;20035;-68
2020/12/17 05:49:16;;;;;;;11.45;6.18;;;12.00;84.30;;;;;;5113861;28;20406;-68
2020/12/17 05:51:44;;;;;;;15.32;7.22;;;12.00;84.40;;;;;;5113264;28;20092;-68
2020/12/17 05:54:19;;;;;;;9.55;5.30;;;11.90;84.40;;;;;;5113732;28;20088;-68
2020/12/17 05:56:44;;;;;;;14.18;7.20;;;12.00;84.50;;;;;;5118022;28;20035;-68
2020/12/17 05:59:10;;;;;;;12.60;5.72;;;11.90;84.50;;;;;;5117360;28;20028;-68
2020/12/17 06:01:36;;;;;;;9.75;5.10;;;11.90;84.50;;;;;;5117544;28;20032;-68
2020/12/17 06:04:17;;;;;;;10.13;5.25;;;11.90;84.50;;;;;;5118039;28;20031;-68
2020/12/17 06:06:47;;;;;;;8.63;5.00;;;11.90;84.50;;;;;;5117336;28;20077;-68
2020/12/17 06:09:20;;;;;;;8.95;4.38;;;11.90;84.50;;;;;;5117436;28;20120;-69
2020/12/17 06:11:47;;;;;;;18.17;7.00;;;11.90;84.50;;;;;;5117667;28;20549;-69
2020/12/17 06:14:15;;;;;;;9.07;4.72;;;11.90;84.60;;;;;;5117126;28;20084;-69
2020/12/17 06:16:43;;;;;;;11.05;5.38;;;11.90;84.70;;;;;;5113033;28;20035;-69
2020/12/17 06:19:12;;;;;;;3.83;2.33;;;11.90;84.80;;;;;;5094017;28;20070;-68
2020/12/17 06:21:40;;;;;;;11.25;5.75;;;11.90;84.80;;;;;;5096595;28;20032;-69
2020/12/17 06:24:07;;;;;;;9.32;5.22;;;11.90;84.90;;;;;;5096263;28;20024;-69
2020/12/17 06:26:39;;;;;;;5.70;3.17;;;11.80;84.90;;;;;;5095352;28;20586;-68
2020/12/17 06:29:17;;;;;;;3.13;2.00;;;11.90;85.10;;;;;;5095493;28;20424;-69
2020/12/17 06:31:56;;;;;;;3.33;1.88;;;11.80;85.10;;;;;;5093702;28;20028;-69
2020/12/17 06:34:22;;;;;;;7.32;4.00;;;11.80;85.20;;;;;;5092894;28;20046;-69
2020/12/17 06:36:58;;;;;;;3.80;2.35;;;11.80;85.30;;;;;;5095428;28;20039;-69
2020/12/17 06:39:24;;;;;;;3.88;1.95;;;11.80;85.50;;;;;;5091396;28;20059;-67
2020/12/17 06:41:50;;;;;;;1.95;1.48;;;11.70;85.50;;;;;;5098535;28;20111;-68
2020/12/17 06:44:30;;;;;;;8.60;4.20;;;11.70;85.70;;;;;;5099949;28;20028;-69
2020/12/17 06:47:01;;;;;;;4.03;2.55;;;11.70;85.80;;;;;;5095279;28;20391;-69
2020/12/17 06:49:29;;;;;;;9.50;4.57;;;11.70;85.90;;;;;;5094484;28;20020;-69
2020/12/17 06:52:09;;;;;;;6.55;3.85;;;11.70;86.00;;;;;;5094129;28;20605;-68
2020/12/17 06:54:37;;;;;;;5.90;3.30;;;11.70;86.10;;;;;;5094766;28;20365;-69
2020/12/17 06:57:14;;;;;;;8.07;4.60;;;11.70;86.10;;;;;;5095371;28;20504;-69
2020/12/17 06:59:41;;;;;;;9.10;4.93;;;11.70;86.20;;;;;;5095563;28;20119;-68
2020/12/17 07:02:08;;;;;;;11.30;6.07;;;11.70;86.10;;;;;;5094811;28;20143;-67
2020/12/17 07:04:48;;;;;;;10.75;6.65;;;11.70;86.10;;;;;;5094562;28;20503;-68
2020/12/17 07:07:19;;;;;;;7.88;4.80;;;11.70;86.20;;;;;;5091133;28;20032;-68
2020/12/17 07:09:55;;;;;;;9.80;3.80;;;11.70;86.20;;;;;;5093583;28;20027;-68
2020/12/17 07:12:35;;;;;;;10.73;6.03;;;11.70;86.20;;;;;;5094493;28;20463;-68
2020/12/17 07:15:02;;;;;;;8.85;5.85;;;11.70;86.20;;;;;;5093656;28;20036;-68
2020/12/17 07:17:28;;;;;;;11.32;5.80;;;11.70;86.20;;;;;;5091584;28;20031;-68
2020/12/17 07:19:54;;;;;;;22.33;5.15;;;11.70;86.20;;;;;;5094342;28;20149;-68
2020/12/17 07:22:20;;;;;;;9.80;6.18;;;11.70;86.30;;;;;;5094546;28;20107;-68
2020/12/17 07:24:51;;;;;;;12.93;5.15;;;11.70;86.30;;;;;;5093815;28;20031;-68
2020/12/17 07:27:24;;;;;;;8.05;3.72;;;11.70;86.30;;;;;;5094209;28;20048;-68
2020/12/17 07:30:06;;;;;;;5.03;2.92;;;11.70;86.20;;;;;;5092065;28;20024;-68
2020/12/17 07:32:44;;;;;;;6.00;2.45;;;11.70;86.80;;;;;;5091729;28;20645;-68
2020/12/17 07:35:09;;;;;;;6.18;2.75;;;11.70;86.10;;;;;;5091853;28;20483;-68
2020/12/17 07:37:57;;;;;;;5.07;2.92;;;11.70;86.10;;;;;;5093619;28;20111;-68
2020/12/17 07:40:34;;;;;;;4.72;2.72;;;11.70;86.20;;;;;;5090814;28;20425;-68
2020/12/17 07:43:14;;;;;;;2.50;1.67;;;11.60;86.20;;;;;;5092949;28;20127;-68
2020/12/17 07:45:41;;;;;;;4.35;2.97;;;11.60;86.40;;;;;;5081241;28;20063;-68
2020/12/17 07:48:32;;;;;;;5.05;3.33;;;11.60;86.50;;;;;;5095106;28;20436;-67
2020/12/17 07:50:58;;;;;;;3.65;2.15;;;11.60;86.70;;;;;;5093109;28;20051;-69
2020/12/17 07:53:25;;;;;;;6.68;4.28;;;11.60;86.80;;;;;;5093743;28;20024;-66
2020/12/17 07:55:51;;;;;;;2.28;1.55;;;11.50;86.90;;;;;;5094067;28;20089;-73
2020/12/17 07:58:17;;;;;;;4.93;2.63;;;11.60;87.00;;;;;;5094155;28;20050;-68
2020/12/17 08:00:44;;;;;;;5.47;2.17;;;11.50;87.00;;;;;;5094028;28;20395;-69
2020/12/17 08:03:10;;;;;;;3.92;2.75;;;11.50;87.00;;;;;;5094098;28;20368;-68
2020/12/17 08:05:36;;;;;;;10.85;3.15;;;11.50;87.10;;;;;;5093375;28;20093;-68
2020/12/17 08:08:02;;;;;;;4.47;3.03;;;11.50;87.20;;;;;;5093789;28;20024;-68
2020/12/17 08:10:27;;;;;;;4.72;2.63;;;11.50;87.30;;;;;;5093196;28;20425;-68
2020/12/17 08:12:53;;;;;;;6.60;3.08;;;11.50;87.50;;;;;;5093523;28;20103;-68
2020/12/17 08:15:20;;;;;;;3.75;2.92;;;11.40;87.50;;;;;;5092641;28;20032;-68
2020/12/17 08:17:48;;;;;;;3.45;2.00;;;11.40;87.60;;;;;;5094452;28;20032;-68
2020/12/17 08:20:17;;;;;;;9.38;3.92;;;11.40;87.70;;;;;;5093922;28;20040;-69
2020/12/17 08:22:43;;;;;;;3.65;2.38;;;11.40;87.80;;;;;;5088963;28;20035;-67
2020/12/17 08:25:09;;;;;;;3.00;2.10;;;11.40;87.90;;;;;;5107691;28;20097;-73
2020/12/17 08:27:35;;;;;;;1.30;1.13;;;11.30;87.80;;;;;;5112461;28;20078;-69
2020/12/17 08:30:01;;;;;;;5.25;2.85;;;11.30;87.90;;;;;;5113169;28;20027;-70
2020/12/17 08:32:27;;;;;;;3.58;2.25;;;11.30;87.90;;;;;;5113808;28;20031;-69
2020/12/17 08:34:55;;;;;;;5.10;3.30;;;11.30;88.00;;;;;;5102550;28;20035;-69
2020/12/17 08:37:22;;;;;;;7.80;2.78;;;11.30;88.00;;;;;;5093160;28;20089;-69
2020/12/17 08:40:05;;;;;;;1.70;1.33;;;11.30;88.00;;;;;;5092111;28;20032;-69
2020/12/17 08:42:35;;;;;;;4.27;2.70;;;11.30;88.00;;;;;;5090633;28;20379;-70
2020/12/17 08:45:08;;;;;;;4.40;2.90;;;11.30;88.00;;;;;;5089996;28;20032;-69
2020/12/17 08:47:37;;;;;;;5.60;2.97;;;11.30;87.90;;;;;;5093082;28;20031;-69
2020/12/17 08:50:06;;;;;;;1.52;1.13;;;11.30;87.90;;;;;;5090904;28;20115;-69
2020/12/17 08:52:32;;;;;;;6.00;2.88;;;11.30;87.90;;;;;;5097052;28;20035;-69
2020/12/17 08:55:04;;;;;;;6.22;3.55;;;11.30;87.90;;;;;;5112599;28;20035;-69
2020/12/17 08:57:30;;;;;;;5.05;2.75;;;11.30;88.00;;;;;;5113020;28;20035;-69
2020/12/17 08:59:55;;;;;;;1.45;1.33;;;11.30;87.90;;;;;;5112845;27;20030;-69
2020/12/17 09:02:26;;;;;;;4.75;3.25;;;11.30;87.80;;;;;;5113147;28;20035;-69
2020/12/17 09:04:58;;;;;;;4.47;2.22;;;11.30;88.40;;;;;;5112841;28;20558;-69
2020/12/17 09:07:29;;;;;;;3.50;1.73;;;11.40;87.70;;;;;;5113418;28;20496;-69
2020/12/17 09:10:09;;;;;;;3.80;2.17;;;11.40;87.60;;;;;;5112553;28;20035;-68
2020/12/17 09:12:35;;;;;;;1.30;1.20;;;11.40;87.60;;;;;;5113262;28;20027;-69
2020/12/17 09:15:09;;;;;;;4.78;3.00;;;11.50;87.50;;;;;;5101939;28;20036;-75
2020/12/17 09:17:35;;;;;;;2.58;1.63;;;11.40;87.50;;;;;;5111626;28;20023;-75
2020/12/17 09:20:18;;;;;;;3.33;2.38;;;11.40;87.30;;;;;;5112707;28;20396;-70
2020/12/17 09:22:45;;;;;;;1.75;1.08;;;11.40;87.30;;;;;;5111856;28;20031;-71
2020/12/17 09:25:12;;;;;;;4.93;1.35;;;11.40;87.10;;;;;;5113204;28;20043;-67
2020/12/17 09:27:38;;;;;;;1.30;0.90;;;11.40;87.10;;;;;;5113043;28;20040;-67
2020/12/17 09:30:07;;;;;;;5.63;1.92;;;11.50;87.10;;;;;;5111816;28;20027;-69
2020/12/17 09:32:35;;;;;;;2.70;2.10;;;11.50;87.10;;;;;;5112789;28;20028;-69
2020/12/17 09:35:13;;;;;;;7.22;3.25;;;11.50;87.10;;;;;;5112433;28;20055;-70
2020/12/17 09:37:56;;;;;;;3.95;2.45;;;11.40;87.20;;;;;;5112529;28;20118;-74
2020/12/17 09:40:23;;;;;;;8.63;3.47;;;11.50;87.30;;;;;;5112668;28;20024;-70
2020/12/17 09:43:01;;;;;;;2.42;1.80;;;11.50;87.20;;;;;;5112853;28;20042;-67
2020/12/17 09:45:27;;;;;;;7.50;4.95;;;11.50;87.10;;;;;;5112505;28;20039;-69
2020/12/17 09:47:52;;;;;;;9.00;5.05;;;11.60;87.20;;;;;;5092557;28;20048;-69
2020/12/17 09:50:18;;;;;;;10.15;6.07;;;11.60;87.10;;;;;;5092202;28;20467;-69
2020/12/17 09:52:45;;;;;;;8.55;4.22;;;11.70;87.00;;;;;;5091483;28;20028;-69
2020/12/17 09:55:13;;;;;;;7.53;4.78;;;11.60;86.80;;;;;;5092618;28;20032;-69
2020/12/17 09:57:44;;;;;;;8.38;3.83;;;11.70;86.80;;;;;;5092263;28;20021;-68
2020/12/17 10:00:12;;;;;;;3.97;2.22;;;11.70;86.60;;;;;;5092293;28;20036;-70
2020/12/17 10:02:40;;;;;;;3.20;1.77;;;11.70;86.40;;;;;;5092430;28;20077;-70
2020/12/17 10:05:07;;;;;;;7.47;3.95;;;11.70;86.20;;;;;;5091692;28;20047;-69
2020/12/17 10:07:33;;;;;;;8.15;5.00;;;11.70;86.20;;;;;;5092210;28;20040;-70
2020/12/17 10:09:59;;;;;;;4.65;2.20;;;11.70;86.20;;;;;;5091993;28;20033;-70
2020/12/17 10:12:25;;;;;;;5.13;1.85;;;11.70;86.10;;;;;;5091926;28;20024;-70
2020/12/17 10:14:50;;;;;;;5.70;2.05;;;11.70;86.20;;;;;;5090816;28;20387;-69
2020/12/17 10:17:17;;;;;;;5.80;3.58;;;11.70;86.30;;;;;;5092170;28;20031;-69
2020/12/17 10:19:42;;;;;;;6.57;4.28;;;11.60;86.40;;;;;;5091444;28;20110;-70
2020/12/17 10:22:08;;;;;;;8.15;5.13;;;11.70;86.60;;;;;;5092033;28;20062;-70
2020/12/17 10:24:34;;;;;;;6.15;3.67;;;11.70;86.60;;;;;;5091234;28;20529;-70
2020/12/17 10:27:02;;;;;;;8.18;5.10;;;11.70;86.60;;;;;;5091114;28;20052;-68
2020/12/17 10:29:28;;;;;;;7.78;3.88;;;11.70;86.60;;;;;;5091522;28;20542;-68
2020/12/17 10:31:57;;;;;;;7.72;3.92;;;11.70;86.60;;;;;;5091786;28;20036;-69
2020/12/17 10:34:23;;;;;;;10.20;5.85;;;11.70;86.60;;;;;;5091750;28;20028;-69
2020/12/17 10:36:49;;;;;;;1.55;1.33;;;11.70;86.70;;;;;;5091467;28;20467;-69
2020/12/17 10:39:15;;;;;;;3.40;2.35;;;11.70;86.70;;;;;;5092017;28;20114;-68
2020/12/17 10:41:41;;;;;;;5.28;3.17;;;11.70;86.80;;;;;;5093346;28;20102;-69
2020/12/17 10:44:08;;;;;;;3.10;2.20;;;11.70;87.00;;;;;;5095354;28;20032;-69
2020/12/17 10:46:35;;;;;;;11.68;5.07;;;11.70;87.20;;;;;;5095820;28;20032;-69
2020/12/17 10:49:02;;;;;;;8.45;5.30;;;11.60;87.30;;;;;;5094593;28;20024;-69
2020/12/17 10:51:28;;;;;;;10.27;5.20;;;11.60;87.50;;;;;;5095649;28;20123;-69
2020/12/17 10:53:54;;;;;;;10.90;6.65;;;11.60;87.80;;;;;;5095347;28;20052;-71
2020/12/17 10:56:19;;;;;;;12.10;5.40;;;11.50;88.00;;;;;;5094830;28;20071;-69
2020/12/17 10:58:47;;;;;;;8.73;5.20;;;11.40;88.30;;;;;;5095023;28;20020;-70
2020/12/17 11:01:13;;;;;;;5.32;3.40;;;11.40;88.60;;;;;;5095211;28;20039;-69
2020/12/17 11:03:39;;;;;;;8.95;5.95;;;11.40;88.80;;;;;;5095245;28;20039;-72
2020/12/17 11:06:04;;;;;;;6.45;4.03;;;11.30;89.00;;;;;;5094295;28;20036;-72
2020/12/17 11:08:30;;;;;;;7.50;4.90;;;11.30;89.20;;;;;;5094874;28;20492;-68
2020/12/17 11:10:56;;;;;;;10.00;5.47;;;11.30;89.30;;;;;;5094757;28;20036;-68
2020/12/17 11:13:22;;;;;;;11.38;5.65;;;11.30;89.30;;;;;;5095212;28;20047;-69
2020/12/17 11:15:49;;;;;;;7.57;4.32;;;11.30;89.30;;;;;;5094696;28;20434;-75
2020/12/17 11:18:16;;;;;;;7.10;4.35;;;11.30;89.40;;;;;;5095050;28;20103;-71
2020/12/17 11:20:42;;;;;;;9.18;6.28;;;11.30;89.40;;;;;;5094662;28;20028;-68
2020/12/17 11:23:07;;;;;;;8.05;4.80;;;11.30;89.50;;;;;;5094330;28;20089;-68
2020/12/17 11:25:36;;;;;;;7.63;4.95;;;11.30;89.50;;;;;;5094523;28;20499;-75
2020/12/17 11:28:04;;;;;;;8.65;4.80;;;11.40;89.60;;;;;;5094440;28;20140;-68
2020/12/17 11:30:30;;;;;;;10.25;5.32;;;11.40;89.60;;;;;;5094575;28;20131;-72
2020/12/17 11:32:55;;;;;;;11.05;6.35;;;11.40;89.60;;;;;;5094479;28;20024;-68
2020/12/17 11:35:21;;;;;;;11.43;6.50;;;11.40;89.60;;;;;;5094806;28;20521;-69
2020/12/17 11:37:50;;;;;;;24.35;8.43;;;11.40;89.70;;;;;;5092891;28;20536;-68
2020/12/17 11:40:20;;;;;;;9.45;6.30;;;11.40;89.70;;;;;;5095036;28;20043;-74
2020/12/17 11:42:45;;;;;;;12.05;6.38;;;11.40;89.90;;;;;;5093205;28;20051;-72
2020/12/17 11:45:12;;;;;;;13.93;5.72;;;11.40;90.00;;;;;;5113726;28;20074;-70
2020/12/17 11:47:38;;;;;;;11.25;7.38;;;11.40;90.00;;;;;;5096765;28;20038;-70
2020/12/17 11:50:06;;;;;;;10.32;7.45;;;11.40;90.00;;;;;;5094229;28;20118;-69
2020/12/17 11:52:33;;;;;;;12.82;6.25;;;11.40;90.00;;;;;;5093240;28;20032;-70
2020/12/17 11:55:00;;;;;;;12.98;5.85;;;11.40;90.00;;;;;;5093545;28;20036;-68
2020/12/17 11:57:26;;;;;;;12.73;6.90;;;11.40;90.10;;;;;;5108244;28;20039;-70
2020/12/17 11:59:51;;;;;;;8.55;5.30;;;11.40;90.00;;;;;;5114018;28;20115;-72
2020/12/17 12:02:17;;;;;;;7.05;4.40;;;11.40;90.10;;;;;;5114120;28;20127;-71
2020/12/17 12:04:43;;;;;;;5.95;4.15;;;11.40;90.10;;;;;;5113524;28;20429;-69
2020/12/17 12:07:08;;;;;;;12.57;7.05;;;11.40;90.10;;;;;;5114320;28;20028;-70
2020/12/17 12:09:34;;;;;;;8.18;4.13;;;11.50;90.00;;;;;;5114167;28;20498;-71
2020/12/17 12:12:00;;;;;;;3.63;2.05;;;11.50;90.00;;;;;;5113534;28;20028;-71
2020/12/17 12:14:25;;;;;;;13.02;6.22;;;11.50;90.00;;;;;;5114210;28;20387;-71
2020/12/17 12:16:51;;;;;;;12.48;3.78;;;11.60;90.00;;;;;;5113976;28;20037;-71
2020/12/17 12:19:17;;;;;;;9.38;4.15;;;11.60;90.00;;;;;;5112669;28;20031;-70
2020/12/17 12:21:50;;;;;;;8.60;5.25;;;11.60;90.00;;;;;;5113652;28;20031;-71
2020/12/17 12:24:16;;;;;;;8.73;4.95;;;11.60;89.90;;;;;;5113733;28;20042;-71
2020/12/17 12:26:41;;;;;;;11.15;5.45;;;11.60;89.90;;;;;;5113068;28;20055;-72
2020/12/17 12:29:07;;;;;;;4.80;3.47;;;11.60;89.80;;;;;;5114191;28;20020;-71
2020/12/17 12:31:33;;;;;;;6.32;4.10;;;11.60;89.80;;;;;;5114113;28;20118;-70
2020/12/17 12:33:58;;;;;;;8.68;5.50;;;11.60;89.80;;;;;;5113134;28;20070;-71
2020/12/17 12:36:24;;;;;;;8.02;4.85;;;11.60;89.90;;;;;;5113976;28;20070;-71
2020/12/17 12:38:50;;;;;;;7.30;4.03;;;11.70;89.90;;;;;;5113584;28;20097;-71
2020/12/17 12:41:18;;;;;;;8.15;4.35;;;11.60;89.80;;;;;;5113091;28;20494;-71
2020/12/17 12:43:44;;;;;;;3.42;2.22;;;11.60;89.80;;;;;;5112879;28;20024;-70
2020/12/17 12:46:10;;;;;;;8.98;6.10;;;11.60;89.80;;;;;;5108027;28;20533;-71